Time;durP1;ratioP1;P1;durP2;ratioP2;P2;SDS_P1;SDS_P2;PMS_P1;PMS_P2;Temp;Humidity;BMP_temperature;BMP_pressure;BME280_temperature;BME280_humidity;BME280_pressure;Samples;Min_cycle;Max_cycle;Signal;HPM_P1;HPM_P2
2023/01/07 00:01:37;;;;;;;;;44.50;34.25;;;;;6.71;100.00;98831.31;4907792;28;108775;-78
2023/01/07 00:04:06;;;;;;;;;33.00;30.00;;;;;6.73;100.00;98829.31;4916115;28;101983;-78
2023/01/07 00:07:13;;;;;;;;;31.50;27.00;;;;;6.67;100.00;98813.88;4900470;28;102009;-74
2023/01/07 00:10:10;;;;;;;;;33.75;24.00;;;;;6.73;100.00;98826.63;4830931;28;103677;-77
2023/01/07 00:12:37;;;;;;;;;22.50;20.75;;;;;6.73;100.00;98829.31;4913781;28;104244;-78
2023/01/07 00:15:04;;;;;;;;;33.75;27.25;;;;;6.66;100.00;98821.09;4909271;28;103564;-77
2023/01/07 00:17:31;;;;;;;;;15.00;14.00;;;;;6.71;100.00;98823.25;4909236;28;102255;-77
2023/01/07 00:19:58;;;;;;;;;14.75;12.00;;;;;6.71;100.00;98837.53;4911747;28;103735;-75
2023/01/07 00:22:25;;;;;;;;;4.00;4.00;;;;;6.70;99.79;98830.50;4915756;28;104064;-76
2023/01/07 00:24:52;;;;;;;;;10.00;9.00;;;;;6.67;100.00;98830.00;4914096;28;102029;-76
2023/01/07 00:27:19;;;;;;;;;8.00;6.75;;;;;6.67;99.56;98835.38;4907005;28;101973;-76
2023/01/07 00:29:48;;;;;;;;;9.25;8.00;;;;;6.61;99.60;98841.44;4913760;28;102505;-76
2023/01/07 00:32:15;;;;;;;;;6.25;4.00;;;;;6.59;99.75;98841.59;4914274;28;104225;-75
2023/01/07 00:34:42;;;;;;;;;13.50;8.25;;;;;6.55;99.82;98847.47;4912766;28;104748;-76
2023/01/07 00:39:54;;;;;;;;;8.00;8.00;;;;;6.51;100.00;98838.94;4917028;28;103471;-76
2023/01/07 00:45:08;;;;;;;;;8.00;7.00;;;;;6.48;100.00;98841.13;4920583;28;102277;-76
2023/01/07 00:47:35;;;;;;;;;6.00;5.00;;;;;6.46;100.00;98843.13;4915858;28;102232;-76
2023/01/07 00:50:03;;;;;;;;;4.50;4.00;;;;;6.41;99.56;98845.47;4914851;28;102071;-76
2023/01/07 00:52:29;;;;;;;;;6.00;4.00;;;;;6.34;99.38;98855.22;4915037;28;104021;-76
2023/01/07 00:54:57;;;;;;;;;12.75;11.25;;;;;6.27;99.07;98850.50;4899102;28;102247;-76
2023/01/07 00:57:24;;;;;;;;;11.50;8.50;;;;;6.22;99.08;98858.22;4913341;28;102353;-76
2023/01/07 00:59:51;;;;;;;;;6.75;5.00;;;;;6.18;99.38;98864.94;4921687;28;103157;-76
2023/01/07 01:02:18;;;;;;;;;6.50;6.25;;;;;6.12;98.82;98872.84;4920318;28;104136;-76
2023/01/07 01:04:45;;;;;;;;;7.75;7.00;;;;;6.03;98.46;98869.31;4917618;28;101975;-77
2023/01/07 01:07:12;;;;;;;;;15.25;14.50;;;;;5.96;98.51;98868.28;4915327;28;102123;-76
2023/01/07 01:09:39;;;;;;;;;14.75;10.50;;;;;5.92;98.71;98866.94;4915472;28;102139;-76
2023/01/07 01:12:06;;;;;;;;;34.75;27.00;;;;;5.82;99.02;98864.34;4918293;28;104043;-76
2023/01/07 01:14:33;;;;;;;;;45.25;36.25;;;;;5.76;99.63;98870.38;4915919;28;102124;-77
2023/01/07 01:17:00;;;;;;;;;31.50;25.75;;;;;5.78;99.85;98867.53;4915392;28;102315;-77
2023/01/07 01:19:27;;;;;;;;;28.75;23.50;;;;;5.81;100.00;98877.94;4911341;28;102218;-76
2023/01/07 01:21:54;;;;;;;;;19.00;14.50;;;;;5.82;100.00;98868.88;4912180;28;104028;-76
2023/01/07 01:24:21;;;;;;;;;19.50;13.75;;;;;5.81;100.00;98876.09;4918776;28;102378;-76
2023/01/07 01:26:48;;;;;;;;;18.00;14.25;;;;;5.82;100.00;98869.72;4910877;28;102455;-76
2023/01/07 01:29:15;;;;;;;;;18.50;14.25;;;;;5.83;100.00;98873.25;4901759;28;102559;-76
2023/01/07 01:31:42;;;;;;;;;10.50;10.50;;;;;5.87;100.00;98880.00;4896013;28;103982;-76
2023/01/07 01:34:09;;;;;;;;;12.50;11.50;;;;;5.88;100.00;98881.69;4914537;28;102090;-75
2023/01/07 01:36:37;;;;;;;;;7.25;5.50;;;;;5.90;100.00;98874.28;4918411;28;102326;-76
2023/01/07 01:39:07;;;;;;;;;15.50;13.25;;;;;5.93;100.00;98882.03;4911348;28;102104;-76
2023/01/07 01:41:34;;;;;;;;;12.00;11.25;;;;;5.99;100.00;98883.22;4917164;28;108561;-76
2023/01/07 01:44:21;;;;;;;;;8.50;6.00;;;;;5.97;100.00;98869.13;4911507;28;103120;-76
2023/01/07 01:46:48;;;;;;;;;11.50;8.75;;;;;6.11;100.00;98882.72;4914028;28;102061;-76
2023/01/07 01:49:21;;;;;;;;;3.50;3.50;;;;;6.14;100.00;98881.53;4918751;28;102305;-76
2023/01/07 01:52:12;;;;;;;;;8.00;6.25;;;;;6.17;100.00;98881.19;4911496;28;104268;-76
2023/01/07 01:54:43;;;;;;;;;7.00;4.50;;;;;6.17;100.00;98882.03;4903664;28;103822;-76
2023/01/07 01:57:10;;;;;;;;;6.00;3.25;;;;;6.20;100.00;98895.16;4910807;28;102200;-76
2023/01/07 01:59:41;;;;;;;;;5.00;5.00;;;;;6.22;100.00;98885.06;4917744;28;102335;-76
2023/01/07 02:02:08;;;;;;;;;7.00;6.00;;;;;6.26;100.00;98885.56;4914328;28;108693;-76
2023/01/07 02:04:36;;;;;;;;;9.50;8.00;;;;;6.26;100.00;98878.38;4910358;28;102107;-76
2023/01/07 02:07:08;;;;;;;;;7.00;7.00;;;;;6.26;100.00;98877.53;4905455;28;101980;-76
2023/01/07 02:09:44;;;;;;;;;4.50;4.00;;;;;6.22;100.00;98876.19;4915229;28;102240;-75
2023/01/07 02:13:06;;;;;;;;;6.75;6.75;;;;;6.09;99.50;98863.25;4914332;28;108346;-76
2023/01/07 02:16:06;;;;;;;;;7.25;6.25;;;;;6.04;98.74;98870.97;4918350;28;102517;-75
2023/01/07 02:18:50;;;;;;;;;15.25;14.00;;;;;5.97;98.98;98887.91;4910686;28;102237;-76
2023/01/07 02:22:09;;;;;;;;;33.50;31.50;;;;;5.87;98.92;98882.69;4913755;28;102351;-76
2023/01/07 02:25:19;;;;;;;;;21.00;19.00;;;;;5.77;98.37;98881.94;4908188;28;108277;-76
2023/01/07 02:28:35;;;;;;;;;13.25;11.25;;;;;5.64;98.19;98878.88;4904487;28;102183;-76
2023/01/07 02:31:53;;;;;;;;;16.25;11.75;;;;;5.59;98.67;98875.84;4914150;28;102182;-76
2023/01/07 02:34:26;;;;;;;;;7.00;6.50;;;;;5.57;99.15;98878.72;4912124;28;102167;-76
2023/01/07 02:37:09;;;;;;;;;8.75;5.75;;;;;5.42;99.07;98849.97;4918068;28;104423;-76
2023/01/07 02:39:39;;;;;;;;;12.75;11.50;;;;;5.57;99.12;98876.03;4919024;28;102212;-76
2023/01/07 02:42:10;;;;;;;;;6.00;6.00;;;;;5.57;99.49;98883.25;4915935;28;103369;-76
2023/01/07 02:44:47;;;;;;;;;10.50;8.75;;;;;5.56;98.54;98881.56;4916355;28;102321;-76
2023/01/07 02:47:34;;;;;;;;;10.25;7.25;;;;;5.59;99.33;98886.59;4909182;28;108661;-76
2023/01/07 02:50:03;;;;;;;;;12.75;12.00;;;;;5.52;99.68;98869.47;4915131;28;102349;-76
2023/01/07 02:52:32;;;;;;;;;8.25;8.25;;;;;5.64;99.73;98884.25;4922941;28;102086;-76
2023/01/07 02:55:08;;;;;;;;;6.25;5.00;;;;;5.67;99.90;98890.13;4918597;28;102317;-76
2023/01/07 02:57:50;;;;;;;;;5.50;5.00;;;;;5.66;99.81;98887.63;4919237;28;108704;-73
2023/01/07 03:00:44;;;;;;;;;6.50;6.00;;;;;5.65;99.70;98880.56;4919811;28;102248;-73
2023/01/07 03:03:29;;;;;;;;;2.75;2.75;;;;;5.64;99.46;98887.78;4915658;28;102295;-73
2023/01/07 03:06:18;;;;;;;;;2.00;2.00;;;;;5.61;99.62;98868.50;4914265;28;102132;-73
2023/01/07 03:08:51;;;;;;;;;2.75;2.75;;;;;5.64;99.41;98884.25;4913304;28;108509;-73
2023/01/07 03:11:22;;;;;;;;;2.75;2.75;;;;;5.65;99.79;98883.25;4916209;28;101981;-73
2023/01/07 03:14:08;;;;;;;;;1.25;0.75;;;;;5.68;99.79;98888.28;4918757;28;102273;-77
2023/01/07 03:16:44;;;;;;;;;3.50;2.75;;;;;5.67;99.79;98875.91;4916915;28;102385;-77
2023/01/07 03:19:15;;;;;;;;;10.25;8.00;;;;;5.72;100.00;98892.31;4914752;28;108713;-74
2023/01/07 03:21:46;;;;;;;;;12.25;12.00;;;;;5.75;99.92;98883.97;4913304;28;103384;-73
2023/01/07 03:24:15;;;;;;;;;9.25;8.75;;;;;5.77;99.85;98887.31;4920801;28;102214;-73
2023/01/07 03:26:47;;;;;;;;;11.00;10.00;;;;;5.55;99.47;98843.16;4914671;28;102333;-73
2023/01/07 03:29:17;;;;;;;;;13.75;11.50;;;;;5.78;99.67;98881.78;4917187;28;104017;-76
2023/01/07 03:32:08;;;;;;;;;14.75;14.50;;;;;5.81;99.82;98885.97;4917005;28;102340;-76
2023/01/07 03:34:37;;;;;;;;;6.00;5.00;;;;;5.81;99.90;98888.66;4909905;28;103358;-76
2023/01/07 03:37:26;;;;;;;;;19.75;15.75;;;;;5.79;99.90;98879.94;4912385;28;102358;-77
2023/01/07 03:39:54;;;;;;;;;15.25;12.75;;;;;5.77;100.00;98876.56;4913101;28;108654;-73
2023/01/07 03:42:41;;;;;;;;;14.00;11.00;;;;;5.70;99.26;98862.16;4910494;28;102487;-73
2023/01/07 03:45:15;;;;;;;;;10.75;8.25;;;;;5.62;98.72;98870.19;4912196;28;102284;-73
2023/01/07 03:47:45;;;;;;;;;8.50;8.50;;;;;5.51;98.37;98867.78;4911451;28;102078;-72
2023/01/07 03:50:12;;;;;;;;;8.25;7.75;;;;;5.46;98.24;98872.78;4917265;28;104085;-73
2023/01/07 03:52:39;;;;;;;;;8.50;7.00;;;;;5.36;98.25;98876.44;4922008;28;102145;-73
2023/01/07 03:55:07;;;;;;;;;6.00;4.00;;;;;5.29;97.77;98886.16;4915934;28;102320;-73
2023/01/07 03:57:34;;;;;;;;;8.25;6.25;;;;;5.21;97.70;98886.13;4916891;28;102311;-73
2023/01/07 04:00:03;;;;;;;;;7.00;6.00;;;;;4.88;97.78;98855.63;4917654;28;104037;-73
2023/01/07 04:02:30;;;;;;;;;4.00;4.00;;;;;5.03;97.39;98879.13;4911575;28;102307;-77
2023/01/07 04:04:57;;;;;;;;;5.50;5.50;;;;;5.03;97.62;98890.69;4917593;28;102109;-77
2023/01/07 04:07:24;;;;;;;;;7.00;6.50;;;;;5.01;98.03;98887.34;4914305;28;102466;-76
2023/01/07 04:09:51;;;;;;;;;2.75;2.75;;;;;4.99;98.23;98889.34;4917888;28;103722;-77
2023/01/07 04:12:18;;;;;;;;;5.25;3.25;;;;;4.67;98.30;98846.28;4892968;28;102434;-76
2023/01/07 04:14:45;;;;;;;;;3.25;3.25;;;;;4.91;98.85;98891.94;4900755;28;102312;-76
2023/01/07 04:17:12;;;;;;;;;13.25;12.75;;;;;4.94;98.85;98892.50;4915430;28;102589;-75
2023/01/07 04:19:39;;;;;;;;;12.00;11.00;;;;;4.92;98.82;98896.31;4916141;28;104068;-76
2023/01/07 04:22:08;;;;;;;;;13.75;13.00;;;;;4.94;99.02;98897.00;4915804;28;102405;-76
2023/01/07 04:24:35;;;;;;;;;8.50;7.50;;;;;4.93;99.26;98895.31;4912960;28;102365;-76
2023/01/07 04:27:02;;;;;;;;;12.00;12.00;;;;;4.80;98.46;98889.56;4913727;28;102355;-76
2023/01/07 04:29:30;;;;;;;;;10.75;8.25;;;;;4.81;98.54;98896.59;4916930;28;104079;-76
2023/01/07 04:31:57;;;;;;;;;6.00;3.00;;;;;4.73;98.07;98888.47;4911686;28;103433;-76
2023/01/07 04:34:24;;;;;;;;;9.75;8.25;;;;;4.70;98.26;98886.13;4911754;28;102018;-76
2023/01/07 04:36:51;;;;;;;;;9.25;8.25;;;;;4.39;98.50;98846.41;4913681;28;102788;-76
2023/01/07 04:39:18;;;;;;;;;6.00;6.00;;;;;4.64;98.58;98890.25;4913914;28;103985;-75
2023/01/07 04:41:45;;;;;;;;;8.00;7.50;;;;;4.63;99.05;98888.59;4911387;28;102492;-75
2023/01/07 04:44:14;;;;;;;;;7.00;5.75;;;;;4.63;99.59;98890.44;4914156;28;103542;-72
2023/01/07 04:46:41;;;;;;;;;7.50;7.25;;;;;4.62;99.77;98897.63;4910213;28;103599;-73
2023/01/07 04:49:08;;;;;;;;;8.75;8.75;;;;;4.60;99.64;98898.78;4921780;28;104262;-72
2023/01/07 04:51:35;;;;;;;;;3.00;3.00;;;;;4.53;99.53;98885.19;4913149;28;102653;-72
2023/01/07 04:54:02;;;;;;;;;12.25;11.75;;;;;4.57;100.00;98893.72;4918016;28;102119;-73
2023/01/07 04:56:29;;;;;;;;;9.00;9.00;;;;;4.58;99.74;98890.06;4917968;28;102035;-73
2023/01/07 04:58:56;;;;;;;;;11.00;10.50;;;;;4.55;99.72;98891.19;4915487;28;104215;-76
2023/01/07 05:01:24;;;;;;;;;13.25;12.50;;;;;4.52;99.41;98896.03;4915947;28;102434;-76
2023/01/07 05:03:51;;;;;;;;;11.75;11.75;;;;;4.46;99.25;98898.34;4899100;28;102288;-76
2023/01/07 05:06:18;;;;;;;;;7.25;7.00;;;;;4.42;99.24;98899.66;4911248;28;102321;-76
2023/01/07 05:08:45;;;;;;;;;15.75;14.50;;;;;4.38;99.58;98911.66;4916594;28;103502;-75
2023/01/07 05:11:12;;;;;;;;;14.50;13.00;;;;;4.27;99.16;98909.25;4915614;28;102172;-75
2023/01/07 05:13:39;;;;;;;;;22.00;19.75;;;;;4.20;100.00;98912.66;4927850;28;102084;-75
2023/01/07 05:16:06;;;;;;;;;29.50;26.00;;;;;4.11;100.00;98921.59;4915495;28;102367;-76
2023/01/07 05:18:33;;;;;;;;;29.00;22.00;;;;;4.06;100.00;98916.72;4911173;28;103814;-76
2023/01/07 05:21:00;;;;;;;;;21.75;16.00;;;;;4.00;100.00;98917.34;4912404;28;102245;-77
2023/01/07 05:23:27;;;;;;;;;49.00;40.00;;;;;3.84;100.00;98922.50;4915126;28;102720;-76
2023/01/07 05:25:54;;;;;;;;;60.67;44.00;;;;;3.63;100.00;98920.09;4913170;28;102089;-76
2023/01/07 05:28:21;;;;;;;;;45.00;38.00;;;;;3.50;100.00;98920.47;4913792;28;103944;-76
2023/01/07 05:30:48;;;;;;;;;56.33;42.33;;;;;3.54;100.00;98923.66;4913752;28;102329;-76
2023/01/07 05:33:15;;;;;;;;;34.50;29.75;;;;;3.59;100.00;98924.91;4908255;28;102025;-76
2023/01/07 05:35:42;;;;;;;;;23.00;21.25;;;;;3.67;100.00;98926.84;4912259;28;101998;-76
2023/01/07 05:38:09;;;;;;;;;14.25;11.50;;;;;3.74;100.00;98924.41;4914994;28;104030;-76
2023/01/07 05:40:36;;;;;;;;;17.00;12.00;;;;;3.78;100.00;98926.59;4912009;28;102875;-76
2023/01/07 05:43:03;;;;;;;;;14.50;11.75;;;;;3.84;100.00;98930.53;4913721;28;102109;-76
2023/01/07 05:45:30;;;;;;;;;5.75;5.00;;;;;3.86;100.00;98925.88;4911865;28;102008;-76
2023/01/07 05:47:57;;;;;;;;;16.50;12.50;;;;;3.86;100.00;98931.22;4917156;28;104016;-76
2023/01/07 05:50:24;;;;;;;;;13.25;11.00;;;;;3.78;100.00;98918.59;4905922;28;102038;-76
2023/01/07 05:52:51;;;;;;;;;15.75;13.75;;;;;3.76;100.00;98914.38;4907370;28;102395;-73
2023/01/07 05:55:18;;;;;;;;;10.75;8.50;;;;;3.69;100.00;98910.66;4916241;28;103546;-76
2023/01/07 05:57:45;;;;;;;;;11.75;10.00;;;;;3.74;100.00;98911.03;4894971;28;104554;-73
2023/01/07 06:00:13;;;;;;;;;14.75;11.25;;;;;3.71;100.00;98917.50;4914470;28;102394;-73
2023/01/07 06:02:40;;;;;;;;;18.25;13.00;;;;;3.65;100.00;98922.63;4914810;28;102575;-73
2023/01/07 06:05:07;;;;;;;;;33.75;30.25;;;;;3.59;100.00;98924.06;4914073;28;102195;-76
2023/01/07 06:07:35;;;;;;;;;47.00;37.00;;;;;3.46;100.00;98926.25;4912216;28;104632;-76
2023/01/07 06:10:03;;;;;;;;;27.25;26.50;;;;;3.48;100.00;98911.72;4914748;28;102373;-76
2023/01/07 06:12:30;;;;;;;;;28.75;24.00;;;;;3.46;100.00;98919.06;4893752;28;103433;-76
2023/01/07 06:14:57;;;;;;;;;41.00;32.50;;;;;3.41;100.00;98920.50;4915952;28;102433;-76
2023/01/07 06:17:23;;;;;;;;;28.00;23.75;;;;;3.54;100.00;98919.16;4914636;28;104242;-76
2023/01/07 06:19:50;;;;;;;;;21.50;19.75;;;;;3.63;100.00;98920.09;4915245;28;103011;-76
2023/01/07 06:22:17;;;;;;;;;15.25;11.75;;;;;3.73;100.00;98928.06;4913708;28;102432;-76
2023/01/07 06:24:44;;;;;;;;;13.25;10.50;;;;;3.77;100.00;98922.28;4917168;28;101992;-75
2023/01/07 06:27:11;;;;;;;;;7.00;6.25;;;;;3.84;100.00;98925.16;4921588;28;104127;-76
2023/01/07 06:29:38;;;;;;;;;11.25;9.00;;;;;3.91;100.00;98915.56;4914834;28;102136;-76
2023/01/07 06:32:05;;;;;;;;;9.50;8.00;;;;;3.94;100.00;98917.94;4909546;28;102306;-76
2023/01/07 06:34:32;;;;;;;;;8.00;7.50;;;;;3.98;100.00;98924.66;4912835;28;104973;-76
2023/01/07 06:36:59;;;;;;;;;2.25;2.00;;;;;4.00;100.00;98923.53;4910032;28;103975;-75
2023/01/07 06:39:26;;;;;;;;;3.50;2.00;;;;;4.03;100.00;98925.03;4909904;28;102501;-75
2023/01/07 06:41:53;;;;;;;;;6.00;6.00;;;;;3.99;100.00;98921.84;4911206;28;102155;-75
2023/01/07 06:44:20;;;;;;;;;10.50;10.00;;;;;4.02;100.00;98926.88;4914438;28;102036;-75
2023/01/07 06:46:47;;;;;;;;;10.00;8.25;;;;;4.07;100.00;98920.22;4910370;28;106266;-75
2023/01/07 06:49:14;;;;;;;;;5.75;5.75;;;;;4.10;100.00;98934.13;4908602;28;102392;-75
2023/01/07 06:51:41;;;;;;;;;5.75;5.00;;;;;4.08;100.00;98922.75;4916825;28;102284;-75
2023/01/07 06:54:08;;;;;;;;;5.50;3.50;;;;;4.05;100.00;98923.88;4914208;28;102198;-76
2023/01/07 06:56:34;;;;;;;;;7.00;6.00;;;;;3.99;100.00;98927.19;4909987;28;104018;-75
2023/01/07 06:59:01;;;;;;;;;5.25;4.00;;;;;3.88;100.00;98908.66;4910767;28;102165;-75
2023/01/07 07:01:28;;;;;;;;;6.00;5.50;;;;;3.95;100.00;98924.97;4914639;28;103711;-75
2023/01/07 07:03:55;;;;;;;;;6.50;6.00;;;;;3.95;100.00;98916.94;4914834;28;102565;-75
2023/01/07 07:06:22;;;;;;;;;5.00;3.00;;;;;3.97;100.00;98928.31;4913344;28;103958;-75
2023/01/07 07:08:49;;;;;;;;;2.25;2.00;;;;;3.97;100.00;98918.47;4918715;28;102272;-73
2023/01/07 07:11:16;;;;;;;;;5.00;3.75;;;;;3.97;100.00;98925.63;4896122;28;102082;-73
2023/01/07 07:13:43;;;;;;;;;2.50;2.50;;;;;3.96;100.00;98934.69;4917211;28;102200;-74
2023/01/07 07:16:10;;;;;;;;;1.25;1.25;;;;;3.98;100.00;98927.34;4920334;28;104022;-75
2023/01/07 07:18:37;;;;;;;;;2.00;2.00;;;;;3.98;100.00;98921.97;4915230;28;103164;-76
2023/01/07 07:21:04;;;;;;;;;9.00;7.25;;;;;3.95;100.00;98924.97;4917077;28;101936;-75
2023/01/07 07:23:31;;;;;;;;;7.00;6.75;;;;;3.95;100.00;98928.50;4915907;28;102116;-76
2023/01/07 07:25:58;;;;;;;;;5.50;5.00;;;;;4.00;100.00;98928.03;4917049;28;103709;-75
2023/01/07 07:28:25;;;;;;;;;3.00;3.00;;;;;4.05;100.00;98931.09;4917836;28;103721;-75
2023/01/07 07:30:52;;;;;;;;;6.50;6.00;;;;;4.15;100.00;98931.84;4909313;28;102271;-76
2023/01/07 07:33:19;;;;;;;;;11.25;11.00;;;;;4.25;100.00;98929.09;4915927;28;101976;-75
2023/01/07 07:35:46;;;;;;;;;12.00;9.50;;;;;4.34;100.00;98929.03;4914348;28;104049;-75
2023/01/07 07:38:16;;;;;;;;;8.00;6.50;;;;;4.43;100.00;98928.09;4915127;28;101971;-75
2023/01/07 07:40:44;;;;;;;;;9.50;8.00;;;;;4.52;100.00;98934.38;4915982;28;101960;-75
2023/01/07 07:43:12;;;;;;;;;8.75;5.75;;;;;4.64;100.00;98926.94;4914391;28;102574;-76
2023/01/07 07:45:42;;;;;;;;;6.00;5.75;;;;;4.70;100.00;98924.47;4915556;28;108811;-75
2023/01/07 07:48:12;;;;;;;;;13.00;10.00;;;;;4.83;100.00;98926.72;4917441;28;102037;-75
2023/01/07 07:50:39;;;;;;;;;6.25;4.75;;;;;4.91;100.00;98930.31;4920565;28;104297;-76
2023/01/07 07:53:08;;;;;;;;;8.25;7.75;;;;;4.99;100.00;98916.13;4914068;28;102314;-76
2023/01/07 07:55:37;;;;;;;;;7.50;5.00;;;;;5.06;100.00;98917.19;4924679;28;104322;-76
2023/01/07 07:58:04;;;;;;;;;7.00;7.00;;;;;5.13;100.00;98907.53;4914888;28;105336;-76
2023/01/07 08:00:31;;;;;;;;;10.00;7.50;;;;;5.18;100.00;98921.25;4914094;28;102051;-76
2023/01/07 08:02:58;;;;;;;;;3.50;3.00;;;;;5.19;100.00;98917.59;4914915;28;102475;-75
2023/01/07 08:05:27;;;;;;;;;8.00;7.00;;;;;5.22;100.00;98922.63;4921867;28;104205;-75
2023/01/07 08:07:54;;;;;;;;;12.75;11.00;;;;;5.23;100.00;98916.25;4921958;28;102459;-76
2023/01/07 08:10:22;;;;;;;;;17.25;16.50;;;;;5.23;100.00;98918.94;4925978;28;102250;-76
2023/01/07 08:12:49;;;;;;;;;14.25;10.75;;;;;5.26;100.00;98923.16;4918463;28;102423;-76
2023/01/07 08:15:17;;;;;;;;;6.00;5.00;;;;;5.15;100.00;98902.81;4912616;28;104145;-75
2023/01/07 08:17:44;;;;;;;;;9.75;6.50;;;;;5.19;100.00;98906.84;4900326;28;105521;-76
2023/01/07 08:20:11;;;;;;;;;11.75;11.75;;;;;5.22;100.00;98917.25;4916718;28;102179;-75
2023/01/07 08:22:38;;;;;;;;;7.00;7.00;;;;;5.23;100.00;98910.06;4917318;28;102138;-77
2023/01/07 08:25:05;;;;;;;;;16.00;13.00;;;;;5.21;100.00;98918.28;4902782;28;104160;-75
2023/01/07 08:27:33;;;;;;;;;7.00;6.00;;;;;5.19;100.00;98906.84;4914391;28;102408;-75
2023/01/07 08:30:00;;;;;;;;;9.50;7.00;;;;;5.18;100.00;98913.22;4916049;28;102328;-77
2023/01/07 08:32:27;;;;;;;;;8.00;6.75;;;;;5.19;100.00;98912.22;4914872;28;103152;-74
2023/01/07 08:34:54;;;;;;;;;8.75;8.25;;;;;5.18;100.00;98910.53;4911152;28;104152;-74
2023/01/07 08:37:21;;;;;;;;;10.75;7.50;;;;;5.11;100.00;98887.22;4901581;28;102298;-75
2023/01/07 08:39:48;;;;;;;;;8.50;8.00;;;;;5.21;100.00;98912.91;4914116;28;102302;-75
2023/01/07 08:42:16;;;;;;;;;7.75;6.25;;;;;4.99;100.00;98875.09;4914741;28;102265;-74
2023/01/07 08:44:43;;;;;;;;;6.00;4.00;;;;;5.11;100.00;98896.09;4914985;28;103957;-75
2023/01/07 08:47:10;;;;;;;;;7.50;7.50;;;;;5.02;100.00;98874.78;4914981;28;102164;-75
2023/01/07 08:49:37;;;;;;;;;5.00;4.00;;;;;5.17;100.00;98900.84;4910633;28;102748;-74
2023/01/07 08:52:04;;;;;;;;;8.25;6.50;;;;;5.26;100.00;98918.66;4916262;28;106128;-75
2023/01/07 08:54:31;;;;;;;;;6.25;5.25;;;;;5.25;100.00;98916.13;4915770;28;104036;-74
2023/01/07 08:56:58;;;;;;;;;12.00;10.25;;;;;5.28;100.00;98923.81;4914417;28;102314;-75
2023/01/07 08:59:25;;;;;;;;;7.00;6.50;;;;;5.32;100.00;98922.50;4912332;28;102314;-75
2023/01/07 09:01:52;;;;;;;;;9.25;6.75;;;;;5.34;100.00;98920.50;4917069;28;102410;-74
2023/01/07 09:04:19;;;;;;;;;9.75;9.50;;;;;5.40;100.00;98930.59;4919632;28;104091;-75
2023/01/07 09:06:46;;;;;;;;;3.50;3.50;;;;;5.41;100.00;98921.53;4912128;28;102303;-75
2023/01/07 09:09:15;;;;;;;;;6.50;6.00;;;;;5.49;100.00;98932.34;4916829;28;102253;-75
2023/01/07 09:11:42;;;;;;;;;10.75;9.50;;;;;5.55;100.00;98933.50;4914506;28;103295;-75
2023/01/07 09:14:09;;;;;;;;;6.25;5.00;;;;;5.63;100.00;98928.19;4914098;28;111826;-74
2023/01/07 09:16:36;;;;;;;;;8.25;7.00;;;;;5.71;100.00;98922.84;4910960;28;102114;-75
2023/01/07 09:19:03;;;;;;;;;16.50;14.75;;;;;5.88;100.00;98938.03;4911265;28;102385;-75
2023/01/07 09:21:30;;;;;;;;;12.75;11.50;;;;;5.98;100.00;98930.69;4911846;28;103818;-74
2023/01/07 09:23:57;;;;;;;;;13.75;9.00;;;;;6.11;100.00;98923.00;4911950;28;103985;-75
2023/01/07 09:26:24;;;;;;;;;9.50;8.25;;;;;6.30;100.00;98929.91;4915473;28;102101;-75
2023/01/07 09:28:52;;;;;;;;;9.00;9.00;;;;;6.50;100.00;98925.03;4919908;28;103494;-75
2023/01/07 09:31:21;;;;;;;;;7.50;7.25;;;;;6.70;100.00;98926.41;4915689;28;102405;-75
2023/01/07 09:33:49;;;;;;;;;11.75;11.00;;;;;6.88;100.00;98928.91;4912506;28;103967;-76
2023/01/07 09:36:16;;;;;;;;;16.00;9.00;;;;;7.03;100.00;98921.81;4912615;28;102154;-77
2023/01/07 09:38:43;;;;;;;;;10.50;9.50;;;;;7.15;100.00;98917.78;4921743;28;102450;-77
2023/01/07 09:41:35;;;;;;;;;18.00;16.25;;;;;7.29;100.00;98918.91;4920951;28;102941;-76
2023/01/07 09:44:32;;;;;;;;;20.25;18.50;;;;;7.39;99.91;98914.16;4913503;28;108552;-78
2023/01/07 09:47:01;;;;;;;;;14.50;13.25;;;;;7.46;97.98;98913.31;4890815;28;102417;-76
2023/01/07 09:49:31;;;;;;;;;16.50;14.25;;;;;7.56;97.23;98907.72;4912454;28;102126;-77
2023/01/07 09:52:14;;;;;;;;;18.25;14.50;;;;;7.63;96.59;98909.53;4915264;28;102341;-77
2023/01/07 09:54:44;;;;;;;;;23.25;21.25;;;;;7.67;95.42;98899.25;4919640;28;110593;-76
2023/01/07 09:57:15;;;;;;;;;28.25;20.00;;;;;7.78;95.50;98906.09;4921462;28;102249;-76
2023/01/07 09:59:44;;;;;;;;;28.50;19.25;;;;;7.85;94.79;98907.91;4922249;28;102839;-76
2023/01/07 10:02:34;;;;;;;;;24.25;18.50;;;;;7.91;93.71;98901.00;4900113;28;102302;-77
2023/01/07 10:05:20;;;;;;;;;33.50;25.25;;;;;7.91;93.28;98899.16;4913937;28;108617;-76
2023/01/07 10:08:07;;;;;;;;;26.75;20.75;;;;;7.96;93.13;98899.44;4914793;28;102341;-76
2023/01/07 10:11:06;;;;;;;;;20.00;18.75;;;;;8.07;93.40;98890.13;4906998;28;102297;-76
2023/01/07 10:13:48;;;;;;;;;17.75;14.00;;;;;8.12;92.59;98908.44;4911412;28;102182;-77
2023/01/07 10:16:24;;;;;;;;;19.75;15.00;;;;;8.12;92.32;98895.81;4908798;28;108839;-76
2023/01/07 10:19:04;;;;;;;;;15.00;13.50;;;;;8.20;92.62;98889.50;4921707;28;102035;-76
2023/01/07 10:21:41;;;;;;;;;19.00;15.25;;;;;8.26;93.14;98886.97;4927809;28;105320;-77
2023/01/07 10:24:17;;;;;;;;;14.50;12.00;;;;;8.27;92.19;98885.09;4915571;28;102369;-76
2023/01/07 10:26:52;;;;;;;;;17.00;15.50;;;;;8.24;90.34;98885.47;4899457;28;108759;-75
2023/01/07 10:29:27;;;;;;;;;11.75;10.75;;;;;8.29;91.05;98888.44;4917617;28;102473;-75
2023/01/07 10:31:58;;;;;;;;;22.50;18.25;;;;;8.30;90.91;98885.63;4907771;28;102074;-76
2023/01/07 10:34:35;;;;;;;;;27.00;20.25;;;;;8.31;90.15;98881.06;4916768;28;102161;-75
2023/01/07 10:37:07;;;;;;;;;20.00;16.75;;;;;8.34;90.32;98870.75;4910797;28;104026;-76
2023/01/07 10:40:03;;;;;;;;;20.00;18.00;;;;;8.36;90.81;98862.50;4914255;28;102260;-76
2023/01/07 10:42:36;;;;;;;;;24.75;18.50;;;;;8.39;90.07;98879.16;4909251;28;102410;-76
2023/01/07 10:45:38;;;;;;;;;20.75;18.50;;;;;8.40;89.86;98875.44;4911730;28;102401;-77
2023/01/07 10:48:38;;;;;;;;;17.75;14.00;;;;;8.46;89.99;98872.03;4879231;28;108584;-76
2023/01/07 10:51:15;;;;;;;;;17.25;16.00;;;;;8.48;89.23;98864.59;4794516;28;103192;-74
2023/01/07 10:54:12;;;;;;;;;29.25;22.00;;;;;8.52;88.94;98862.38;4909840;28;104412;-75
2023/01/07 10:56:46;;;;;;;;;26.00;18.75;;;;;8.58;90.19;98856.25;4915246;28;102380;-75
2023/01/07 10:59:17;;;;;;;;;22.00;17.00;;;;;8.71;89.86;98864.56;4916187;28;108281;-74
2023/01/07 11:01:49;;;;;;;;;15.00;14.75;;;;;8.73;87.44;98865.22;4914574;28;102194;-72
2023/01/07 11:04:17;;;;;;;;;20.50;17.25;;;;;8.72;86.87;98863.53;4917058;28;102205;-73
2023/01/07 11:07:03;;;;;;;;;21.00;19.00;;;;;8.72;86.87;98857.31;4912202;28;102172;-73
2023/01/07 11:09:42;;;;;;;;;20.00;17.50;;;;;8.71;86.20;98861.84;4912317;28;108418;-72
2023/01/07 11:12:15;;;;;;;;;23.00;17.25;;;;;8.66;86.33;98848.09;4906189;28;103563;-73
2023/01/07 11:14:43;;;;;;;;;19.75;15.50;;;;;8.61;85.22;98842.41;4912471;28;102915;-73
2023/01/07 11:17:38;;;;;;;;;21.75;19.25;;;;;8.63;86.79;98853.84;4912786;28;104889;-73
2023/01/07 11:20:06;;;;;;;;;16.25;15.75;;;;;8.56;85.88;98836.72;4910342;28;108625;-75
2023/01/07 11:22:35;;;;;;;;;16.75;11.75;;;;;8.54;86.12;98836.09;4912559;28;102402;-74
2023/01/07 11:25:23;;;;;;;;;16.75;13.50;;;;;8.51;86.00;98833.72;4921299;28;101967;-74
2023/01/07 11:27:49;;;;;;;;;12.00;10.00;;;;;8.43;86.29;98831.97;4899611;28;102286;-74
2023/01/07 11:30:22;;;;;;;;;14.25;10.25;;;;;8.45;86.50;98843.41;4925805;28;108614;-76
2023/01/07 11:33:00;;;;;;;;;7.25;7.25;;;;;8.40;87.15;98835.03;4918004;28;101993;-75
2023/01/07 11:35:27;;;;;;;;;7.00;6.00;;;;;8.36;87.42;98831.03;4917224;28;102194;-75
2023/01/07 11:37:56;;;;;;;;;11.50;8.50;;;;;8.29;87.22;98830.06;4912318;28;101980;-75
2023/01/07 11:40:29;;;;;;;;;8.00;7.50;;;;;8.25;87.02;98823.31;4922181;28;104180;-75
2023/01/07 11:42:57;;;;;;;;;15.25;12.25;;;;;8.15;87.39;98821.91;4915523;28;103153;-74
2023/01/07 11:45:33;;;;;;;;;15.75;13.50;;;;;8.12;86.47;98819.56;4900418;28;102065;-75
2023/01/07 11:48:16;;;;;;;;;11.00;10.00;;;;;8.10;85.59;98821.59;4919596;28;102373;-75